createdAt,value
2019-01-06T00:00:30.296Z,47.10
2019-01-06T00:03:29.601Z,41.23
2019-01-06T00:06:16.829Z,52.30
2019-01-06T00:09:03.260Z,45.55
2019-01-06T00:11:59.023Z,41.25
2019-01-06T00:14:52.131Z,44.10
2019-01-06T00:17:44.247Z,47.95
2019-01-06T00:20:30.472Z,39.85
2019-01-06T00:23:17.521Z,48.65
2019-01-06T00:26:04.693Z,38.40
2019-01-06T00:29:06.385Z,41.28
2019-01-06T00:32:02.459Z,37.70
2019-01-06T00:35:04.700Z,27.73
2019-01-06T00:38:11.051Z,40.48
2019-01-06T00:41:10.430Z,41.70
2019-01-06T00:43:57.843Z,40.88
2019-01-06T00:46:43.524Z,35.52
2019-01-06T00:49:30.969Z,37.30
2019-01-06T00:52:16.656Z,35.55
2019-01-06T00:55:12.565Z,39.20
2019-01-06T00:57:58.836Z,37.38
2019-01-06T01:00:44.527Z,36.50
2019-01-06T01:03:32.844Z,39.80
2019-01-06T01:06:24.125Z,32.58
2019-01-06T01:09:13.719Z,33.95
2019-01-06T01:12:06.760Z,33.65
2019-01-06T01:15:00.798Z,30.57
2019-01-06T01:17:48.313Z,33.60
2019-01-06T01:20:29.403Z,24.37
2019-01-06T01:23:19.454Z,29.27
2019-01-06T01:26:06.592Z,29.50
2019-01-06T01:28:53.561Z,29.60
2019-01-06T01:31:59.511Z,36.08
2019-01-06T01:34:52.186Z,28.95
2019-01-06T01:37:39.845Z,25.50
2019-01-06T01:40:37.017Z,26.57
2019-01-06T01:43:33.174Z,25.30
2019-01-06T01:46:19.038Z,32.35
2019-01-06T01:49:22.365Z,25.05
2019-01-06T01:52:23.452Z,24.43
2019-01-06T01:55:17.669Z,37.15
2019-01-06T01:58:14.960Z,33.23
2019-01-06T02:01:05.756Z,24.02
2019-01-06T02:03:50.879Z,21.85
2019-01-06T02:06:57.660Z,22.90
2019-01-06T02:09:43.453Z,21.55
2019-01-06T02:12:49.015Z,24.18
2019-01-06T02:15:47.628Z,25.90
2019-01-06T02:18:34.297Z,20.80
2019-01-06T02:21:33.441Z,27.02
2019-01-06T02:24:29.657Z,23.10
2019-01-06T02:27:15.283Z,21.55
2019-01-06T02:30:20.708Z,22.82
2019-01-06T02:33:06.512Z,24.60
2019-01-06T02:35:57.557Z,25.10
2019-01-06T02:38:51.632Z,24.37
2019-01-06T02:41:38.914Z,24.27
2019-01-06T02:44:26.186Z,25.75
2019-01-06T02:47:13.575Z,24.87
2019-01-06T02:50:05.642Z,22.17
2019-01-06T02:53:08.295Z,27.00
2019-01-06T02:55:57.497Z,26.35
2019-01-06T02:58:50.578Z,27.35
2019-01-06T03:01:52.332Z,23.55
2019-01-06T03:04:43.740Z,21.65
2019-01-06T03:07:50.396Z,22.85
2019-01-06T03:10:52.496Z,24.15
2019-01-06T03:13:45.699Z,27.10
2019-01-06T03:16:42.884Z,25.97
2019-01-06T03:19:45.159Z,25.82
2019-01-06T03:22:40.366Z,24.23
2019-01-06T03:25:27.896Z,26.07
2019-01-06T03:28:21.032Z,22.95
2019-01-06T03:31:08.304Z,24.07
2019-01-06T03:33:55.658Z,21.77
2019-01-06T03:36:49.876Z,28.00
2019-01-06T03:39:35.874Z,24.92
2019-01-06T03:42:35.340Z,23.92
2019-01-06T03:45:39.568Z,32.15
2019-01-06T03:48:35.732Z,25.10
2019-01-06T03:51:41.174Z,25.92
2019-01-06T03:54:28.616Z,27.32
2019-01-06T03:57:14.455Z,24.05
2019-01-06T04:00:07.411Z,24.05
2019-01-06T04:03:00.728Z,26.45
2019-01-06T04:05:54.641Z,33.95
2019-01-06T04:08:49.370Z,31.50
2019-01-06T04:11:39.764Z,36.03
2019-01-06T04:14:31.171Z,27.75
2019-01-06T04:17:35.394Z,34.08
2019-01-06T04:20:22.851Z,42.90
2019-01-06T04:23:12.157Z,33.05
2019-01-06T04:26:07.984Z,34.70
2019-01-06T04:28:55.057Z,36.40
2019-01-06T04:31:45.062Z,35.68
2019-01-06T04:34:31.300Z,34.23
2019-01-06T04:37:21.015Z,38.95
2019-01-06T04:40:07.174Z,39.58
2019-01-06T04:42:53.234Z,39.15
2019-01-06T04:45:39.156Z,35.38
2019-01-06T04:48:25.447Z,38.92
2019-01-06T04:51:04.340Z,41.15
2019-01-06T04:53:51.749Z,37.40
2019-01-06T04:56:47.882Z,48.08
2019-01-06T04:59:50.068Z,39.33
2019-01-06T05:02:35.648Z,36.85
2019-01-06T05:05:30.748Z,41.60
2019-01-06T05:08:22.573Z,40.63
2019-01-06T05:11:12.566Z,39.88
2019-01-06T05:13:58.582Z,45.95
2019-01-06T05:16:46.017Z,49.53
2019-01-06T05:19:33.356Z,47.80
2019-01-06T05:22:38.542Z,43.38
2019-01-06T05:25:25.701Z,51.25
2019-01-06T05:28:25.342Z,51.45
2019-01-06T05:31:24.391Z,51.40
2019-01-06T05:34:11.814Z,54.42
2019-01-06T05:36:58.365Z,50.85
2019-01-06T05:39:48.765Z,49.77
2019-01-06T05:42:37.560Z,47.53
2019-01-06T05:45:15.335Z,49.27
2019-01-06T05:48:01.245Z,60.45
2019-01-06T05:50:49.992Z,60.67
2019-01-06T05:53:40.179Z,54.48
2019-01-06T05:56:18.267Z,40.28
2019-01-06T05:59:23.465Z,38.60
2019-01-06T06:02:21.297Z,44.67
2019-01-06T06:05:11.139Z,39.70
2019-01-06T06:08:08.516Z,31.73
2019-01-06T06:11:01.460Z,40.98
2019-01-06T06:13:47.073Z,41.08
2019-01-06T06:16:32.446Z,31.55
2019-01-06T06:19:25.819Z,33.92
2019-01-06T06:22:15.666Z,30.95
2019-01-06T06:25:12.210Z,35.78
2019-01-06T06:27:59.329Z,32.88
2019-01-06T06:30:55.246Z,23.62
2019-01-06T06:33:41.262Z,24.40
2019-01-06T06:36:28.580Z,26.12
2019-01-06T06:39:14.722Z,22.07
2019-01-06T06:42:07.600Z,26.77
2019-01-06T06:44:51.019Z,19.32
2019-01-06T06:47:47.377Z,17.12
2019-01-06T06:50:34.439Z,14.30
2019-01-06T06:53:20.212Z,13.60
2019-01-06T06:56:11.895Z,11.43
2019-01-06T06:59:02.844Z,9.83
2019-01-06T07:02:27.259Z,11.73
2019-01-06T07:05:14.530Z,12.40
2019-01-06T07:08:08.072Z,11.20
2019-01-06T07:11:02.299Z,14.10
2019-01-06T07:13:47.700Z,12.00
2019-01-06T07:17:48.624Z,10.28
2019-01-06T07:20:30.255Z,7.65
2019-01-06T07:23:16.194Z,13.95
2019-01-06T07:26:10.206Z,12.50
2019-01-06T07:28:55.834Z,12.28
2019-01-06T07:31:43.438Z,11.50
2019-01-06T07:34:29.852Z,11.30
2019-01-06T07:37:15.666Z,8.53
2019-01-06T07:40:09.390Z,7.75
2019-01-06T07:42:56.017Z,11.30
2019-01-06T07:46:10.488Z,10.72
2019-01-06T07:49:03.318Z,11.88
2019-01-06T07:51:53.405Z,9.10
2019-01-06T07:54:49.797Z,10.53
2019-01-06T07:57:28.058Z,12.45
2019-01-06T08:00:15.326Z,9.58
2019-01-06T08:03:09.306Z,13.08
2019-01-06T08:05:53.604Z,12.50
2019-01-06T08:09:01.293Z,8.05
2019-01-06T08:11:47.013Z,7.87
2019-01-06T08:14:43.639Z,9.10
2019-01-06T08:17:29.341Z,13.38
2019-01-06T08:20:19.606Z,14.55
2019-01-06T08:23:07.245Z,13.78
2019-01-06T08:25:53.393Z,12.63
2019-01-06T08:28:41.978Z,12.45
2019-01-06T08:31:47.490Z,11.28
2019-01-06T08:34:34.961Z,9.48
2019-01-06T08:37:22.228Z,9.90
2019-01-06T08:40:16.773Z,9.83
2019-01-06T08:43:03.177Z,12.00
2019-01-06T08:45:59.113Z,16.52
2019-01-06T08:49:02.194Z,11.65
2019-01-06T08:51:47.980Z,13.60
2019-01-06T08:54:36.068Z,14.28
2019-01-06T08:57:21.943Z,12.53
2019-01-06T09:00:12.978Z,11.80
2019-01-06T09:03:09.033Z,13.62
2019-01-06T09:05:54.491Z,10.13
2019-01-06T09:08:38.780Z,14.35
2019-01-06T09:11:22.359Z,10.98
2019-01-06T09:13:56.927Z,16.52
2019-01-06T09:16:43.349Z,13.08
2019-01-06T09:19:22.022Z,12.78
2019-01-06T09:22:11.248Z,11.85
2019-01-06T09:25:01.358Z,11.20
2019-01-06T09:27:54.875Z,12.58
2019-01-06T09:30:44.972Z,11.45
2019-01-06T09:33:31.472Z,13.58
2019-01-06T09:36:28.647Z,9.78
2019-01-06T09:39:14.581Z,16.52
2019-01-06T09:41:58.333Z,16.73
2019-01-06T09:44:48.774Z,13.65
2019-01-06T09:47:48.550Z,13.53
2019-01-06T09:50:42.292Z,16.00
2019-01-06T09:53:29.751Z,11.50
2019-01-06T09:56:15.688Z,17.55
2019-01-06T09:59:01.507Z,13.08
2019-01-06T10:01:55.966Z,16.85
2019-01-06T10:04:47.657Z,16.27
2019-01-06T10:07:50.118Z,15.50
2019-01-06T10:10:34.644Z,15.63
2019-01-06T10:13:20.697Z,15.55
2019-01-06T10:16:08.593Z,13.40
2019-01-06T10:19:05.521Z,15.15
2019-01-06T10:21:53.950Z,16.17
2019-01-06T10:24:52.341Z,16.90
2019-01-06T10:27:41.624Z,13.55
2019-01-06T10:30:27.727Z,50.90
2019-01-06T10:33:19.896Z,20.45
2019-01-06T10:36:08.143Z,15.98
2019-01-06T10:38:54.115Z,15.08
2019-01-06T10:41:47.279Z,17.75
2019-01-06T10:44:31.490Z,16.62
2019-01-06T10:47:21.630Z,20.05
2019-01-06T10:50:14.879Z,19.90
2019-01-06T10:53:01.333Z,16.17
2019-01-06T10:56:04.768Z,17.87
2019-01-06T10:58:58.211Z,17.20
2019-01-06T11:01:54.754Z,11.80
2019-01-06T11:04:42.316Z,14.45
2019-01-06T11:07:28.496Z,13.45
2019-01-06T11:10:18.702Z,11.08
2019-01-06T11:13:23.996Z,15.53
2019-01-06T11:16:11.117Z,11.35
2019-01-06T11:18:57.959Z,10.03
2019-01-06T11:21:51.474Z,10.50
2019-01-06T11:24:38.423Z,9.70
2019-01-06T11:27:24.623Z,9.63
2019-01-06T11:30:12.531Z,16.17
2019-01-06T11:32:58.799Z,9.03
2019-01-06T11:35:46.718Z,11.97
2019-01-06T11:38:32.848Z,28.17
2019-01-06T11:41:18.285Z,20.40
2019-01-06T11:44:04.234Z,17.77
2019-01-06T11:46:49.351Z,12.90
2019-01-06T11:49:43.581Z,27.32
2019-01-06T11:52:30.243Z,39.40
2019-01-06T11:55:29.813Z,14.53
2019-01-06T11:58:25.882Z,12.90
2019-01-06T12:01:21.065Z,11.75
2019-01-06T12:04:21.120Z,8.40
2019-01-06T12:07:16.128Z,14.80
2019-01-06T12:10:06.258Z,7.37
2019-01-06T12:12:59.567Z,11.68
2019-01-06T12:15:43.905Z,9.55
2019-01-06T12:18:30.815Z,10.25
2019-01-06T12:21:17.127Z,9.18
2019-01-06T12:24:10.629Z,10.90
2019-01-06T12:26:58.502Z,10.05
2019-01-06T12:29:58.588Z,7.42
2019-01-06T12:32:46.221Z,8.83
2019-01-06T12:35:42.682Z,17.37
2019-01-06T12:38:38.339Z,12.47
2019-01-06T12:41:20.037Z,25.37
2019-01-06T12:44:13.690Z,21.20
2019-01-06T12:46:59.613Z,16.77
2019-01-06T12:49:58.433Z,14.15
2019-01-06T12:52:42.749Z,11.83
2019-01-06T12:55:38.030Z,26.12
2019-01-06T12:58:23.846Z,31.02
2019-01-06T13:01:11.280Z,20.82
2019-01-06T13:03:56.642Z,19.95
2019-01-06T13:06:43.755Z,32.95
2019-01-06T13:09:31.551Z,16.25
2019-01-06T13:12:20.546Z,19.90
2019-01-06T13:15:07.883Z,18.20
2019-01-06T13:17:59.215Z,17.05
2019-01-06T13:20:46.439Z,17.90
2019-01-06T13:23:42.825Z,15.75
2019-01-06T13:26:28.393Z,13.28
2019-01-06T13:29:15.914Z,13.32
2019-01-06T13:32:01.583Z,15.15
2019-01-06T13:35:03.993Z,18.57
2019-01-06T13:40:40.089Z,17.95
2019-01-06T13:43:39.389Z,13.40
2019-01-06T13:46:25.724Z,16.65
2019-01-06T13:49:15.779Z,13.55
2019-01-06T13:52:05.668Z,16.12
2019-01-06T13:54:53.238Z,16.60
2019-01-06T13:57:39.829Z,12.93
2019-01-06T14:00:26.378Z,13.88
2019-01-06T14:03:06.608Z,14.10
2019-01-06T14:05:52.306Z,15.38
2019-01-06T14:08:45.630Z,12.60
2019-01-06T14:11:42.058Z,54.48
2019-01-06T14:14:27.322Z,34.48
2019-01-06T14:17:20.171Z,19.50
2019-01-06T14:20:06.219Z,24.20
2019-01-06T14:23:05.072Z,30.08
2019-01-06T14:25:50.970Z,14.87
2019-01-06T14:28:56.477Z,14.20
2019-01-06T14:31:44.657Z,13.80
2019-01-06T14:34:26.050Z,19.07
2019-01-06T14:37:19.548Z,21.20
2019-01-06T14:40:07.364Z,16.73
2019-01-06T14:42:53.482Z,23.62
2019-01-06T14:45:46.884Z,10.58
2019-01-06T14:48:45.919Z,12.82
2019-01-06T14:51:45.146Z,12.82
2019-01-06T14:54:47.254Z,15.60
2019-01-06T14:57:23.754Z,18.20
2019-01-06T15:00:11.594Z,12.68
2019-01-06T15:03:01.828Z,14.33
2019-01-06T15:05:47.985Z,18.40
2019-01-06T15:08:38.459Z,11.68
2019-01-06T15:11:23.941Z,16.25
2019-01-06T15:14:20.357Z,13.05
2019-01-06T15:17:19.996Z,13.25
2019-01-06T15:20:10.076Z,14.00
2019-01-06T15:22:53.615Z,11.43
2019-01-06T15:25:48.220Z,19.60
2019-01-06T15:28:36.131Z,16.05
2019-01-06T15:31:26.342Z,18.37
2019-01-06T15:34:12.145Z,16.20
2019-01-06T15:37:02.988Z,17.23
2019-01-06T15:39:48.524Z,27.37
2019-01-06T15:42:37.048Z,19.80
2019-01-06T15:45:32.875Z,18.67
2019-01-06T15:48:23.366Z,17.00
2019-01-06T15:51:25.437Z,20.25
2019-01-06T15:54:11.150Z,19.77
2019-01-06T15:57:17.693Z,17.48
2019-01-06T16:00:07.783Z,16.40
2019-01-06T16:03:04.818Z,17.23
2019-01-06T16:05:52.119Z,18.67
2019-01-06T16:08:41.840Z,18.27
2019-01-06T16:11:26.301Z,19.25
2019-01-06T16:14:12.116Z,18.37
2019-01-06T16:16:59.412Z,16.37
2019-01-06T16:19:44.851Z,15.08
2019-01-06T16:22:39.205Z,14.55
2019-01-06T16:25:26.233Z,15.88
2019-01-06T16:28:25.534Z,16.07
2019-01-06T16:31:11.402Z,17.57
2019-01-06T16:33:58.622Z,20.17
2019-01-06T16:36:46.033Z,18.57
2019-01-06T16:39:42.367Z,18.62
2019-01-06T16:42:46.049Z,16.07
2019-01-06T16:45:53.147Z,16.97
2019-01-06T16:48:39.479Z,14.65
2019-01-06T16:51:38.625Z,14.55
2019-01-06T16:54:24.521Z,15.20
2019-01-06T16:57:15.708Z,16.87
2019-01-06T17:00:07.338Z,17.42
2019-01-06T17:02:58.193Z,18.75
2019-01-06T17:05:48.435Z,16.50
2019-01-06T17:08:39.504Z,21.35
2019-01-06T17:11:31.277Z,21.40
2019-01-06T17:14:18.894Z,21.55
2019-01-06T17:17:08.841Z,22.17
2019-01-06T17:20:03.726Z,22.55
2019-01-06T17:22:50.700Z,26.42
2019-01-06T17:25:48.539Z,33.73
2019-01-06T17:28:47.925Z,47.05
2019-01-06T17:31:43.006Z,71.22
2019-01-06T17:34:27.924Z,59.85
2019-01-06T17:37:18.706Z,43.50
2019-01-06T17:40:09.842Z,51.00
2019-01-06T17:42:55.432Z,49.60
2019-01-06T17:45:51.905Z,58.02
2019-01-06T17:48:38.274Z,51.25
2019-01-06T17:51:34.235Z,47.85
2019-01-06T17:54:21.374Z,41.18
2019-01-06T17:57:09.122Z,41.45
2019-01-06T18:00:14.189Z,38.60
2019-01-06T18:02:58.958Z,34.10
2019-01-06T18:05:46.715Z,41.40
2019-01-06T18:08:32.467Z,33.50
2019-01-06T18:11:20.667Z,29.05
2019-01-06T18:14:07.810Z,33.63
2019-01-06T18:17:10.250Z,26.93
2019-01-06T18:19:57.107Z,23.95
2019-01-06T18:22:43.446Z,23.57
2019-01-06T18:25:31.884Z,24.35
2019-01-06T18:28:17.966Z,18.10
2019-01-06T18:31:14.914Z,16.30
2019-01-06T18:34:04.804Z,19.45
2019-01-06T18:37:04.173Z,17.23
2019-01-06T18:39:41.015Z,20.60
2019-01-06T18:42:40.262Z,16.70
2019-01-06T18:45:36.488Z,17.77
2019-01-06T18:48:37.157Z,18.98
2019-01-06T18:51:24.211Z,19.62
2019-01-06T18:54:11.168Z,20.88
2019-01-06T18:56:58.392Z,22.32
2019-01-06T18:59:39.344Z,24.77
2019-01-06T19:02:35.581Z,19.65
2019-01-06T19:05:23.928Z,19.62
2019-01-06T19:08:14.075Z,19.12
2019-01-06T19:11:01.611Z,12.73
2019-01-06T19:13:48.373Z,10.32
2019-01-06T19:16:45.532Z,13.05
2019-01-06T19:19:44.404Z,10.32
2019-01-06T19:22:49.961Z,12.70
2019-01-06T19:25:43.243Z,9.73
2019-01-06T19:28:30.432Z,13.95
2019-01-06T19:31:16.599Z,14.85
2019-01-06T19:34:03.448Z,13.85
2019-01-06T19:37:02.862Z,10.40
2019-01-06T19:39:49.955Z,12.33
2019-01-06T19:42:38.902Z,13.88
2019-01-06T19:45:24.649Z,10.65
2019-01-06T19:48:16.053Z,12.40
2019-01-06T19:51:03.294Z,14.43
2019-01-06T19:53:56.255Z,12.10
2019-01-06T19:56:46.288Z,9.25
2019-01-06T19:59:39.776Z,10.48
2019-01-06T20:02:26.235Z,13.25
2019-01-06T20:05:28.944Z,10.10
2019-01-06T20:08:15.155Z,12.93
2019-01-06T20:11:11.893Z,9.78
2019-01-06T20:13:57.472Z,10.80
2019-01-06T20:16:53.321Z,11.48
2019-01-06T20:19:38.909Z,14.28
2019-01-06T20:22:24.597Z,10.88
2019-01-06T20:25:22.396Z,10.88
2019-01-06T20:28:09.579Z,9.58
2019-01-06T20:30:56.255Z,12.78
2019-01-06T20:33:50.828Z,12.58
2019-01-06T20:36:36.718Z,11.05
2019-01-06T20:39:23.913Z,15.23
2019-01-06T20:42:10.005Z,7.72
2019-01-06T20:44:55.990Z,9.08
2019-01-06T20:47:42.405Z,11.70
2019-01-06T20:50:36.238Z,12.43
2019-01-06T20:53:15.443Z,8.58
2019-01-06T20:56:01.347Z,11.55
2019-01-06T20:58:46.765Z,10.58
2019-01-06T21:01:32.900Z,9.38
2019-01-06T21:04:23.195Z,10.20
2019-01-06T21:07:09.209Z,10.53
2019-01-06T21:10:05.449Z,10.80
2019-01-06T21:12:51.241Z,8.40
2019-01-06T21:15:37.404Z,8.53
2019-01-06T21:18:30.392Z,8.03
2019-01-06T21:21:17.802Z,11.93
2019-01-06T21:24:07.870Z,7.90
2019-01-06T21:26:55.289Z,11.88
2019-01-06T21:29:42.659Z,8.50
2019-01-06T21:32:34.349Z,8.33
2019-01-06T21:35:24.364Z,10.35
2019-01-06T21:38:04.801Z,8.48
2019-01-06T21:41:03.414Z,8.78
2019-01-06T21:44:00.030Z,12.35
2019-01-06T21:46:41.037Z,10.75
2019-01-06T21:49:28.341Z,11.55
2019-01-06T21:52:21.703Z,12.65
2019-01-06T21:55:08.644Z,14.35
2019-01-06T21:57:51.257Z,12.05
2019-01-06T22:00:38.765Z,13.68
2019-01-06T22:03:25.904Z,10.38
2019-01-06T22:06:06.024Z,8.45
2019-01-06T22:08:51.559Z,13.88
2019-01-06T22:11:54.936Z,12.07
2019-01-06T22:14:46.205Z,11.38
2019-01-06T22:17:39.106Z,7.83
2019-01-06T22:20:16.238Z,18.62
2019-01-06T22:23:10.620Z,10.82
2019-01-06T22:25:50.885Z,12.33
2019-01-06T22:28:56.578Z,13.38
2019-01-06T22:31:45.048Z,15.18
2019-01-06T22:34:35.225Z,16.73
2019-01-06T22:37:37.928Z,22.20
2019-01-06T22:40:25.314Z,17.12
2019-01-06T22:43:24.150Z,14.25
2019-01-06T22:46:17.029Z,13.40
2019-01-06T22:49:14.181Z,10.55
2019-01-06T22:52:00.872Z,14.93
2019-01-06T22:54:51.009Z,10.63
2019-01-06T22:57:41.122Z,13.88
2019-01-06T23:00:44.430Z,15.83
2019-01-06T23:03:31.980Z,14.47
2019-01-06T23:06:12.565Z,13.50
2019-01-06T23:08:56.181Z,16.87
2019-01-06T23:11:43.715Z,13.25
2019-01-06T23:14:31.043Z,11.73
2019-01-06T23:17:18.263Z,11.78
2019-01-06T23:20:15.358Z,9.60
2019-01-06T23:22:59.426Z,10.75
2019-01-06T23:25:46.138Z,11.93
2019-01-06T23:28:51.786Z,11.12
2019-01-06T23:31:44.979Z,8.38
2019-01-06T23:34:25.434Z,7.58
2019-01-06T23:37:18.254Z,10.82
2019-01-06T23:40:04.250Z,18.32
2019-01-06T23:42:50.705Z,9.50
2019-01-06T23:45:53.000Z,8.05
2019-01-06T23:48:51.714Z,11.85
2019-01-06T23:51:36.131Z,10.45
2019-01-06T23:54:29.455Z,11.45
2019-01-06T23:57:15.183Z,10.28
